sensor_id;sensor_type;location;lat;lon;timestamp;temperature;humidity
18888;DHT22;9576;47.792;9.628;2023-09-08T00:01:22;17.50;99.90
18888;DHT22;9576;47.792;9.628;2023-09-08T00:04:24;17.40;99.90
18888;DHT22;9576;47.792;9.628;2023-09-08T00:07:26;17.40;99.90
18888;DHT22;9576;47.792;9.628;2023-09-08T00:10:28;17.30;99.90
18888;DHT22;9576;47.792;9.628;2023-09-08T00:13:30;17.30;99.90
18888;DHT22;9576;47.792;9.628;2023-09-08T00:16:34;17.30;99.90
18888;DHT22;9576;47.792;9.628;2023-09-08T00:19:36;17.30;99.90
18888;DHT22;9576;47.792;9.628;2023-09-08T00:22:39;17.30;99.90
18888;DHT22;9576;47.792;9.628;2023-09-08T00:25:41;17.30;99.90
18888;DHT22;9576;47.792;9.628;2023-09-08T00:28:43;17.20;99.90
18888;DHT22;9576;47.792;9.628;2023-09-08T00:31:46;17.20;99.90
18888;DHT22;9576;47.792;9.628;2023-09-08T00:34:49;17.20;99.90
18888;DHT22;9576;47.792;9.628;2023-09-08T00:37:51;17.20;99.90
18888;DHT22;9576;47.792;9.628;2023-09-08T00:40:53;17.10;99.90
18888;DHT22;9576;47.792;9.628;2023-09-08T00:43:55;17.10;99.90
18888;DHT22;9576;47.792;9.628;2023-09-08T00:46:58;17.10;99.90
18888;DHT22;9576;47.792;9.628;2023-09-08T00:50:01;17.10;99.90
18888;DHT22;9576;47.792;9.628;2023-09-08T00:53:04;17.10;99.90
18888;DHT22;9576;47.792;9.628;2023-09-08T00:56:07;17.00;99.90
18888;DHT22;9576;47.792;9.628;2023-09-08T00:59:10;17.00;99.90
18888;DHT22;9576;47.792;9.628;2023-09-08T01:02:14;17.00;99.90
18888;DHT22;9576;47.792;9.628;2023-09-08T01:05:16;16.90;99.90
18888;DHT22;9576;47.792;9.628;2023-09-08T01:08:19;16.90;99.90
18888;DHT22;9576;47.792;9.628;2023-09-08T01:11:21;16.90;99.90
18888;DHT22;9576;47.792;9.628;2023-09-08T01:14:27;16.90;99.90
18888;DHT22;9576;47.792;9.628;2023-09-08T01:17:30;16.90;99.90
18888;DHT22;9576;47.792;9.628;2023-09-08T01:20:40;16.80;99.90
18888;DHT22;9576;47.792;9.628;2023-09-08T01:24:01;16.80;99.90
18888;DHT22;9576;47.792;9.628;2023-09-08T01:27:12;16.70;99.90
18888;DHT22;9576;47.792;9.628;2023-09-08T01:30:16;16.70;99.90
18888;DHT22;9576;47.792;9.628;2023-09-08T01:33:18;16.60;99.90
18888;DHT22;9576;47.792;9.628;2023-09-08T01:36:21;16.60;99.90
18888;DHT22;9576;47.792;9.628;2023-09-08T01:39:23;16.60;99.90
18888;DHT22;9576;47.792;9.628;2023-09-08T01:42:26;16.60;99.90
18888;DHT22;9576;47.792;9.628;2023-09-08T01:45:28;16.50;99.90
18888;DHT22;9576;47.792;9.628;2023-09-08T01:48:30;16.50;99.90
18888;DHT22;9576;47.792;9.628;2023-09-08T01:51:33;16.50;99.90
18888;DHT22;9576;47.792;9.628;2023-09-08T01:54:35;16.40;99.90
18888;DHT22;9576;47.792;9.628;2023-09-08T01:57:39;16.40;99.90
18888;DHT22;9576;47.792;9.628;2023-09-08T02:00:41;16.40;99.90
18888;DHT22;9576;47.792;9.628;2023-09-08T02:03:43;16.40;99.90
18888;DHT22;9576;47.792;9.628;2023-09-08T02:06:45;16.40;99.90
18888;DHT22;9576;47.792;9.628;2023-09-08T02:09:47;16.30;99.90
18888;DHT22;9576;47.792;9.628;2023-09-08T02:12:51;16.30;99.90
18888;DHT22;9576;47.792;9.628;2023-09-08T02:15:54;16.30;99.90
18888;DHT22;9576;47.792;9.628;2023-09-08T02:18:56;16.30;99.90
18888;DHT22;9576;47.792;9.628;2023-09-08T02:21:58;16.30;99.90
18888;DHT22;9576;47.792;9.628;2023-09-08T02:25:00;16.30;99.90
18888;DHT22;9576;47.792;9.628;2023-09-08T02:28:04;16.30;99.90
18888;DHT22;9576;47.792;9.628;2023-09-08T02:31:06;16.30;99.90
18888;DHT22;9576;47.792;9.628;2023-09-08T02:34:08;16.30;99.90
18888;DHT22;9576;47.792;9.628;2023-09-08T02:37:12;16.30;99.90
18888;DHT22;9576;47.792;9.628;2023-09-08T02:40:14;16.30;99.90
18888;DHT22;9576;47.792;9.628;2023-09-08T02:43:17;16.20;99.90
18888;DHT22;9576;47.792;9.628;2023-09-08T02:46:19;16.20;99.90
18888;DHT22;9576;47.792;9.628;2023-09-08T02:49:21;16.20;99.90
18888;DHT22;9576;47.792;9.628;2023-09-08T02:52:23;16.20;99.90
18888;DHT22;9576;47.792;9.628;2023-09-08T02:55:25;16.20;99.90
18888;DHT22;9576;47.792;9.628;2023-09-08T02:58:29;16.10;99.90
18888;DHT22;9576;47.792;9.628;2023-09-08T03:01:34;16.10;99.90
18888;DHT22;9576;47.792;9.628;2023-09-08T03:04:36;16.00;99.90
18888;DHT22;9576;47.792;9.628;2023-09-08T03:07:38;16.00;99.90
18888;DHT22;9576;47.792;9.628;2023-09-08T03:10:40;16.00;99.90
18888;DHT22;9576;47.792;9.628;2023-09-08T03:13:44;16.00;99.90
18888;DHT22;9576;47.792;9.628;2023-09-08T03:16:46;15.90;99.90
18888;DHT22;9576;47.792;9.628;2023-09-08T03:19:48;15.90;99.90
18888;DHT22;9576;47.792;9.628;2023-09-08T03:22:50;15.80;99.90
18888;DHT22;9576;47.792;9.628;2023-09-08T03:25:52;15.80;99.90
18888;DHT22;9576;47.792;9.628;2023-09-08T03:28:55;15.80;99.90
18888;DHT22;9576;47.792;9.628;2023-09-08T03:31:58;15.70;99.90
18888;DHT22;9576;47.792;9.628;2023-09-08T03:35:00;15.70;99.90
18888;DHT22;9576;47.792;9.628;2023-09-08T03:38:02;15.70;99.90
18888;DHT22;9576;47.792;9.628;2023-09-08T03:41:04;15.70;99.90
18888;DHT22;9576;47.792;9.628;2023-09-08T03:44:07;15.60;99.90
18888;DHT22;9576;47.792;9.628;2023-09-08T03:47:09;15.60;99.90
18888;DHT22;9576;47.792;9.628;2023-09-08T03:50:12;15.60;99.90
18888;DHT22;9576;47.792;9.628;2023-09-08T03:53:14;15.60;99.90
18888;DHT22;9576;47.792;9.628;2023-09-08T03:56:16;15.60;99.90
18888;DHT22;9576;47.792;9.628;2023-09-08T03:59:19;15.50;99.90
18888;DHT22;9576;47.792;9.628;2023-09-08T04:02:22;15.60;99.90
18888;DHT22;9576;47.792;9.628;2023-09-08T04:05:25;15.60;99.90
18888;DHT22;9576;47.792;9.628;2023-09-08T04:08:27;15.60;99.90
18888;DHT22;9576;47.792;9.628;2023-09-08T04:11:29;15.50;99.90
18888;DHT22;9576;47.792;9.628;2023-09-08T04:14:32;15.50;99.90
18888;DHT22;9576;47.792;9.628;2023-09-08T04:17:35;15.60;99.90
18888;DHT22;9576;47.792;9.628;2023-09-08T04:20:37;15.60;99.90
18888;DHT22;9576;47.792;9.628;2023-09-08T04:23:39;15.50;99.90
18888;DHT22;9576;47.792;9.628;2023-09-08T04:26:41;15.60;99.90
18888;DHT22;9576;47.792;9.628;2023-09-08T04:29:45;15.60;99.90
18888;DHT22;9576;47.792;9.628;2023-09-08T04:32:47;15.50;99.90
18888;DHT22;9576;47.792;9.628;2023-09-08T04:35:49;15.50;99.90
18888;DHT22;9576;47.792;9.628;2023-09-08T04:38:51;15.50;99.90
18888;DHT22;9576;47.792;9.628;2023-09-08T04:41:53;15.40;99.90
18888;DHT22;9576;47.792;9.628;2023-09-08T04:44:57;15.40;99.90
18888;DHT22;9576;47.792;9.628;2023-09-08T04:47:59;15.30;99.90
18888;DHT22;9576;47.792;9.628;2023-09-08T04:51:01;15.30;99.90
18888;DHT22;9576;47.792;9.628;2023-09-08T04:54:03;15.30;99.90
18888;DHT22;9576;47.792;9.628;2023-09-08T04:57:05;15.30;99.90
18888;DHT22;9576;47.792;9.628;2023-09-08T05:00:10;15.30;99.90
18888;DHT22;9576;47.792;9.628;2023-09-08T05:03:12;15.40;99.90
18888;DHT22;9576;47.792;9.628;2023-09-08T05:06:14;15.40;99.90
18888;DHT22;9576;47.792;9.628;2023-09-08T05:09:16;15.40;99.90
18888;DHT22;9576;47.792;9.628;2023-09-08T05:12:18;15.40;99.90
18888;DHT22;9576;47.792;9.628;2023-09-08T05:15:22;15.40;99.90
18888;DHT22;9576;47.792;9.628;2023-09-08T05:18:26;15.50;99.90
18888;DHT22;9576;47.792;9.628;2023-09-08T05:21:28;15.50;99.90
18888;DHT22;9576;47.792;9.628;2023-09-08T05:24:30;15.50;99.90
18888;DHT22;9576;47.792;9.628;2023-09-08T05:27:32;15.50;99.90
18888;DHT22;9576;47.792;9.628;2023-09-08T05:30:36;15.50;99.90
18888;DHT22;9576;47.792;9.628;2023-09-08T05:33:38;15.50;99.90
18888;DHT22;9576;47.792;9.628;2023-09-08T05:36:40;15.50;99.90
18888;DHT22;9576;47.792;9.628;2023-09-08T05:39:43;15.50;99.90
18888;DHT22;9576;47.792;9.628;2023-09-08T05:42:45;15.60;99.90
18888;DHT22;9576;47.792;9.628;2023-09-08T05:45:49;15.60;99.90
18888;DHT22;9576;47.792;9.628;2023-09-08T05:48:51;15.50;99.90
18888;DHT22;9576;47.792;9.628;2023-09-08T05:51:53;15.50;99.90
18888;DHT22;9576;47.792;9.628;2023-09-08T05:54:55;15.50;99.90
18888;DHT22;9576;47.792;9.628;2023-09-08T05:57:57;15.50;99.90
18888;DHT22;9576;47.792;9.628;2023-09-08T06:01:01;15.60;99.90
18888;DHT22;9576;47.792;9.628;2023-09-08T06:04:03;15.70;99.90
18888;DHT22;9576;47.792;9.628;2023-09-08T06:07:05;15.70;99.90
18888;DHT22;9576;47.792;9.628;2023-09-08T06:10:08;15.70;99.90
18888;DHT22;9576;47.792;9.628;2023-09-08T06:13:10;15.70;99.90
18888;DHT22;9576;47.792;9.628;2023-09-08T06:16:14;15.80;99.90
18888;DHT22;9576;47.792;9.628;2023-09-08T06:19:16;15.80;99.90
18888;DHT22;9576;47.792;9.628;2023-09-08T06:22:18;15.80;99.90
18888;DHT22;9576;47.792;9.628;2023-09-08T06:25:20;15.90;99.90
18888;DHT22;9576;47.792;9.628;2023-09-08T06:28:22;15.90;99.90
18888;DHT22;9576;47.792;9.628;2023-09-08T06:31:26;16.00;99.90
18888;DHT22;9576;47.792;9.628;2023-09-08T06:34:28;16.00;99.90
18888;DHT22;9576;47.792;9.628;2023-09-08T06:37:35;16.00;99.90
18888;DHT22;9576;47.792;9.628;2023-09-08T06:40:37;16.00;99.90
18888;DHT22;9576;47.792;9.628;2023-09-08T06:43:40;16.00;99.90
18888;DHT22;9576;47.792;9.628;2023-09-08T06:46:44;16.10;99.90
18888;DHT22;9576;47.792;9.628;2023-09-08T06:49:46;16.20;99.90
18888;DHT22;9576;47.792;9.628;2023-09-08T06:52:48;16.20;99.90
18888;DHT22;9576;47.792;9.628;2023-09-08T06:55:51;16.30;99.90
18888;DHT22;9576;47.792;9.628;2023-09-08T06:58:53;16.40;99.90
18888;DHT22;9576;47.792;9.628;2023-09-08T07:01:57;16.40;99.90
18888;DHT22;9576;47.792;9.628;2023-09-08T07:04:59;16.40;99.90
18888;DHT22;9576;47.792;9.628;2023-09-08T07:08:01;16.50;99.90
18888;DHT22;9576;47.792;9.628;2023-09-08T07:11:03;16.60;99.90
18888;DHT22;9576;47.792;9.628;2023-09-08T07:14:05;16.70;99.90
18888;DHT22;9576;47.792;9.628;2023-09-08T07:17:09;16.80;99.90
18888;DHT22;9576;47.792;9.628;2023-09-08T07:20:11;16.80;99.90
18888;DHT22;9576;47.792;9.628;2023-09-08T07:23:13;16.80;99.90
18888;DHT22;9576;47.792;9.628;2023-09-08T07:26:15;16.90;99.90
18888;DHT22;9576;47.792;9.628;2023-09-08T07:29:18;17.00;99.90
18888;DHT22;9576;47.792;9.628;2023-09-08T07:32:21;17.00;99.90
18888;DHT22;9576;47.792;9.628;2023-09-08T07:35:25;17.10;99.90
18888;DHT22;9576;47.792;9.628;2023-09-08T07:38:27;17.20;99.90
18888;DHT22;9576;47.792;9.628;2023-09-08T07:41:29;17.30;99.90
18888;DHT22;9576;47.792;9.628;2023-09-08T07:44:31;17.30;99.90
18888;DHT22;9576;47.792;9.628;2023-09-08T07:47:34;17.40;99.90
18888;DHT22;9576;47.792;9.628;2023-09-08T07:50:38;17.50;99.90
18888;DHT22;9576;47.792;9.628;2023-09-08T07:53:41;17.60;99.90
18888;DHT22;9576;47.792;9.628;2023-09-08T07:56:43;17.80;99.90
18888;DHT22;9576;47.792;9.628;2023-09-08T07:59:45;17.90;99.90
18888;DHT22;9576;47.792;9.628;2023-09-08T08:02:51;18.10;99.90
18888;DHT22;9576;47.792;9.628;2023-09-08T08:05:53;18.20;99.90
18888;DHT22;9576;47.792;9.628;2023-09-08T08:08:55;18.40;99.90
18888;DHT22;9576;47.792;9.628;2023-09-08T08:11:57;18.50;99.90
18888;DHT22;9576;47.792;9.628;2023-09-08T08:14:59;18.60;99.90
18888;DHT22;9576;47.792;9.628;2023-09-08T08:18:03;18.80;99.90
18888;DHT22;9576;47.792;9.628;2023-09-08T08:21:05;18.90;99.90
18888;DHT22;9576;47.792;9.628;2023-09-08T08:24:08;19.10;99.90
18888;DHT22;9576;47.792;9.628;2023-09-08T08:27:11;19.30;99.90
18888;DHT22;9576;47.792;9.628;2023-09-08T08:30:13;19.40;99.90
18888;DHT22;9576;47.792;9.628;2023-09-08T08:33:16;19.40;99.90
18888;DHT22;9576;47.792;9.628;2023-09-08T08:36:18;19.50;99.90
18888;DHT22;9576;47.792;9.628;2023-09-08T08:39:21;19.60;99.90
18888;DHT22;9576;47.792;9.628;2023-09-08T08:42:23;19.70;99.90
18888;DHT22;9576;47.792;9.628;2023-09-08T08:45:25;19.90;99.90
18888;DHT22;9576;47.792;9.628;2023-09-08T08:48:29;20.10;99.90
18888;DHT22;9576;47.792;9.628;2023-09-08T08:51:34;20.30;99.90
18888;DHT22;9576;47.792;9.628;2023-09-08T08:54:39;20.40;99.90
18888;DHT22;9576;47.792;9.628;2023-09-08T08:57:41;20.60;99.90
18888;DHT22;9576;47.792;9.628;2023-09-08T09:00:44;20.70;99.90
18888;DHT22;9576;47.792;9.628;2023-09-08T09:03:49;20.80;99.90
18888;DHT22;9576;47.792;9.628;2023-09-08T09:06:53;20.90;99.90
18888;DHT22;9576;47.792;9.628;2023-09-08T09:09:55;21.00;99.90
18888;DHT22;9576;47.792;9.628;2023-09-08T09:12:57;21.20;99.90
18888;DHT22;9576;47.792;9.628;2023-09-08T09:16:00;21.30;99.90
18888;DHT22;9576;47.792;9.628;2023-09-08T09:19:05;21.40;99.90
18888;DHT22;9576;47.792;9.628;2023-09-08T09:22:07;21.60;99.90
18888;DHT22;9576;47.792;9.628;2023-09-08T09:25:09;21.80;99.90
18888;DHT22;9576;47.792;9.628;2023-09-08T09:28:12;22.00;99.90
18888;DHT22;9576;47.792;9.628;2023-09-08T09:31:14;22.10;99.90
18888;DHT22;9576;47.792;9.628;2023-09-08T09:34:17;22.30;99.90
18888;DHT22;9576;47.792;9.628;2023-09-08T09:37:21;22.50;99.90
18888;DHT22;9576;47.792;9.628;2023-09-08T09:40:23;22.70;99.90
18888;DHT22;9576;47.792;9.628;2023-09-08T09:43:28;22.80;99.90
18888;DHT22;9576;47.792;9.628;2023-09-08T09:46:31;23.00;99.90
18888;DHT22;9576;47.792;9.628;2023-09-08T09:49:41;23.20;99.90
18888;DHT22;9576;47.792;9.628;2023-09-08T09:52:44;23.30;99.90
18888;DHT22;9576;47.792;9.628;2023-09-08T09:55:49;23.50;99.90
18888;DHT22;9576;47.792;9.628;2023-09-08T09:58:53;23.70;99.90
18888;DHT22;9576;47.792;9.628;2023-09-08T10:01:55;23.90;99.90
18888;DHT22;9576;47.792;9.628;2023-09-08T10:05:10;23.90;99.90
18888;DHT22;9576;47.792;9.628;2023-09-08T10:08:13;24.10;99.90
18888;DHT22;9576;47.792;9.628;2023-09-08T10:11:19;24.30;99.90
18888;DHT22;9576;47.792;9.628;2023-09-08T10:14:23;24.50;99.90
18888;DHT22;9576;47.792;9.628;2023-09-08T10:17:29;24.70;99.90
18888;DHT22;9576;47.792;9.628;2023-09-08T10:20:34;24.90;99.90
18888;DHT22;9576;47.792;9.628;2023-09-08T10:23:38;25.00;99.90
18888;DHT22;9576;47.792;9.628;2023-09-08T10:26:44;25.20;99.90
18888;DHT22;9576;47.792;9.628;2023-09-08T10:29:49;25.40;99.90
18888;DHT22;9576;47.792;9.628;2023-09-08T10:32:51;25.60;99.90
18888;DHT22;9576;47.792;9.628;2023-09-08T10:35:55;25.80;99.90
18888;DHT22;9576;47.792;9.628;2023-09-08T10:42:25;26.00;99.90
18888;DHT22;9576;47.792;9.628;2023-09-08T10:45:30;26.10;99.90
18888;DHT22;9576;47.792;9.628;2023-09-08T10:48:40;26.30;99.90
18888;DHT22;9576;47.792;9.628;2023-09-08T10:51:48;26.50;99.90
18888;DHT22;9576;47.792;9.628;2023-09-08T10:54:51;26.50;99.90
18888;DHT22;9576;47.792;9.628;2023-09-08T10:57:57;26.60;99.90
18888;DHT22;9576;47.792;9.628;2023-09-08T11:01:00;26.70;99.90
18888;DHT22;9576;47.792;9.628;2023-09-08T11:04:05;26.80;99.90
18888;DHT22;9576;47.792;9.628;2023-09-08T11:07:11;27.00;99.90
18888;DHT22;9576;47.792;9.628;2023-09-08T11:10:13;27.10;99.90
18888;DHT22;9576;47.792;9.628;2023-09-08T11:13:16;27.30;99.90
18888;DHT22;9576;47.792;9.628;2023-09-08T11:16:18;27.50;99.90
18888;DHT22;9576;47.792;9.628;2023-09-08T11:19:23;27.80;99.90
18888;DHT22;9576;47.792;9.628;2023-09-08T11:22:27;28.10;99.90
18888;DHT22;9576;47.792;9.628;2023-09-08T11:25:29;28.30;99.90
18888;DHT22;9576;47.792;9.628;2023-09-08T11:28:32;28.40;99.90
18888;DHT22;9576;47.792;9.628;2023-09-08T11:31:34;28.50;99.90
18888;DHT22;9576;47.792;9.628;2023-09-08T11:34:36;28.80;99.90
18888;DHT22;9576;47.792;9.628;2023-09-08T11:37:41;29.20;99.90
18888;DHT22;9576;47.792;9.628;2023-09-08T11:40:43;29.40;99.90
18888;DHT22;9576;47.792;9.628;2023-09-08T11:43:45;29.40;99.90
18888;DHT22;9576;47.792;9.628;2023-09-08T11:46:47;29.70;99.90
18888;DHT22;9576;47.792;9.628;2023-09-08T11:49:52;29.90;99.90
18888;DHT22;9576;47.792;9.628;2023-09-08T11:52:56;30.20;99.90
18888;DHT22;9576;47.792;9.628;2023-09-08T11:55:59;30.60;99.90
18888;DHT22;9576;47.792;9.628;2023-09-08T11:59:02;30.80;99.90
18888;DHT22;9576;47.792;9.628;2023-09-08T12:02:04;31.10;99.90
18888;DHT22;9576;47.792;9.628;2023-09-08T12:05:11;31.40;99.90
18888;DHT22;9576;47.792;9.628;2023-09-08T12:08:15;31.10;99.90
18888;DHT22;9576;47.792;9.628;2023-09-08T12:11:17;30.50;99.90
18888;DHT22;9576;47.792;9.628;2023-09-08T12:14:20;29.90;99.90
18888;DHT22;9576;47.792;9.628;2023-09-08T12:17:22;29.60;99.90
18888;DHT22;9576;47.792;9.628;2023-09-08T12:20:26;30.00;99.90
18888;DHT22;9576;47.792;9.628;2023-09-08T12:23:30;30.40;99.90
18888;DHT22;9576;47.792;9.628;2023-09-08T12:26:32;30.80;99.90
18888;DHT22;9576;47.792;9.628;2023-09-08T12:29:34;31.20;99.90
18888;DHT22;9576;47.792;9.628;2023-09-08T12:32:36;31.50;99.90
18888;DHT22;9576;47.792;9.628;2023-09-08T12:35:38;31.80;99.90
18888;DHT22;9576;47.792;9.628;2023-09-08T12:38:46;31.90;99.90
18888;DHT22;9576;47.792;9.628;2023-09-08T12:41:48;32.20;99.90
18888;DHT22;9576;47.792;9.628;2023-09-08T12:44:50;32.50;99.90
18888;DHT22;9576;47.792;9.628;2023-09-08T12:47:53;32.70;99.90
18888;DHT22;9576;47.792;9.628;2023-09-08T12:50:58;32.90;99.90
18888;DHT22;9576;47.792;9.628;2023-09-08T12:54:02;33.00;99.90
18888;DHT22;9576;47.792;9.628;2023-09-08T12:57:04;33.30;99.90
18888;DHT22;9576;47.792;9.628;2023-09-08T13:00:07;33.10;99.90
18888;DHT22;9576;47.792;9.628;2023-09-08T13:03:10;33.30;99.90
18888;DHT22;9576;47.792;9.628;2023-09-08T13:06:12;33.40;99.90
18888;DHT22;9576;47.792;9.628;2023-09-08T13:09:16;33.40;99.90
18888;DHT22;9576;47.792;9.628;2023-09-08T13:12:18;33.40;99.90
18888;DHT22;9576;47.792;9.628;2023-09-08T13:15:20;33.70;99.90
18888;DHT22;9576;47.792;9.628;2023-09-08T13:18:22;33.80;99.90
18888;DHT22;9576;47.792;9.628;2023-09-08T13:21:24;33.90;99.90
18888;DHT22;9576;47.792;9.628;2023-09-08T13:24:28;33.90;99.90
18888;DHT22;9576;47.792;9.628;2023-09-08T13:27:30;34.00;99.90
18888;DHT22;9576;47.792;9.628;2023-09-08T13:30:32;34.30;99.90
18888;DHT22;9576;47.792;9.628;2023-09-08T13:33:34;34.60;99.90
18888;DHT22;9576;47.792;9.628;2023-09-08T13:36:36;34.90;99.90
18888;DHT22;9576;47.792;9.628;2023-09-08T13:39:39;35.20;99.90
18888;DHT22;9576;47.792;9.628;2023-09-08T13:42:41;35.50;99.90
18888;DHT22;9576;47.792;9.628;2023-09-08T13:45:43;35.70;99.90
18888;DHT22;9576;47.792;9.628;2023-09-08T13:48:46;35.90;99.90
18888;DHT22;9576;47.792;9.628;2023-09-08T13:51:48;35.90;99.90
18888;DHT22;9576;47.792;9.628;2023-09-08T13:54:53;36.00;99.90
18888;DHT22;9576;47.792;9.628;2023-09-08T13:57:55;36.20;99.90
18888;DHT22;9576;47.792;9.628;2023-09-08T14:00:57;36.10;99.90
18888;DHT22;9576;47.792;9.628;2023-09-08T14:03:59;36.10;99.90
18888;DHT22;9576;47.792;9.628;2023-09-08T14:07:01;36.10;99.90
18888;DHT22;9576;47.792;9.628;2023-09-08T14:10:06;35.70;99.90
18888;DHT22;9576;47.792;9.628;2023-09-08T14:13:08;35.20;99.90
18888;DHT22;9576;47.792;9.628;2023-09-08T14:16:11;35.60;99.90
18888;DHT22;9576;47.792;9.628;2023-09-08T14:19:13;36.30;99.90
18888;DHT22;9576;47.792;9.628;2023-09-08T14:22:15;37.10;99.90
18888;DHT22;9576;47.792;9.628;2023-09-08T14:25:19;37.60;99.90
18888;DHT22;9576;47.792;9.628;2023-09-08T14:28:21;37.80;99.90
18888;DHT22;9576;47.792;9.628;2023-09-08T14:31:23;37.80;99.90
18888;DHT22;9576;47.792;9.628;2023-09-08T14:34:25;38.10;99.90
18888;DHT22;9576;47.792;9.628;2023-09-08T14:37:27;38.10;99.90
18888;DHT22;9576;47.792;9.628;2023-09-08T14:40:31;38.40;99.90
18888;DHT22;9576;47.792;9.628;2023-09-08T14:43:33;38.30;99.90
18888;DHT22;9576;47.792;9.628;2023-09-08T14:46:35;38.50;99.90
18888;DHT22;9576;47.792;9.628;2023-09-08T14:49:37;38.80;99.90
18888;DHT22;9576;47.792;9.628;2023-09-08T14:52:39;38.90;99.90
18888;DHT22;9576;47.792;9.628;2023-09-08T14:55:43;38.80;99.90
18888;DHT22;9576;47.792;9.628;2023-09-08T14:58:45;38.10;99.90
18888;DHT22;9576;47.792;9.628;2023-09-08T15:01:47;38.00;99.90
18888;DHT22;9576;47.792;9.628;2023-09-08T15:04:51;38.50;99.90
18888;DHT22;9576;47.792;9.628;2023-09-08T15:07:53;38.90;99.90
18888;DHT22;9576;47.792;9.628;2023-09-08T15:10:56;39.10;99.10
18888;DHT22;9576;47.792;9.628;2023-09-08T15:13:59;39.30;99.80
18888;DHT22;9576;47.792;9.628;2023-09-08T15:17:01;39.60;99.90
18888;DHT22;9576;47.792;9.628;2023-09-08T15:20:03;40.10;99.90
18888;DHT22;9576;47.792;9.628;2023-09-08T15:23:06;40.30;98.30
18888;DHT22;9576;47.792;9.628;2023-09-08T15:26:09;40.10;97.30
18888;DHT22;9576;47.792;9.628;2023-09-08T15:29:11;40.30;97.60
18888;DHT22;9576;47.792;9.628;2023-09-08T15:32:15;40.20;97.40
18888;DHT22;9576;47.792;9.628;2023-09-08T15:35:17;39.90;96.70
18888;DHT22;9576;47.792;9.628;2023-09-08T15:38:19;39.70;96.40
18888;DHT22;9576;47.792;9.628;2023-09-08T15:41:22;39.70;97.70
18888;DHT22;9576;47.792;9.628;2023-09-08T15:44:24;39.90;97.30
18888;DHT22;9576;47.792;9.628;2023-09-08T15:47:26;39.90;96.70
18888;DHT22;9576;47.792;9.628;2023-09-08T15:50:29;39.90;95.50
18888;DHT22;9576;47.792;9.628;2023-09-08T15:53:31;40.00;96.80
18888;DHT22;9576;47.792;9.628;2023-09-08T15:56:34;39.90;95.20
18888;DHT22;9576;47.792;9.628;2023-09-08T15:59:36;39.50;96.70
18888;DHT22;9576;47.792;9.628;2023-09-08T16:02:40;38.70;96.20
18888;DHT22;9576;47.792;9.628;2023-09-08T16:05:42;37.60;97.90
18888;DHT22;9576;47.792;9.628;2023-09-08T16:08:44;36.90;97.90
18888;DHT22;9576;47.792;9.628;2023-09-08T16:11:48;37.20;97.70
18888;DHT22;9576;47.792;9.628;2023-09-08T16:14:50;37.70;97.70
18888;DHT22;9576;47.792;9.628;2023-09-08T16:17:52;38.20;96.90
18888;DHT22;9576;47.792;9.628;2023-09-08T16:20:55;38.60;97.20
18888;DHT22;9576;47.792;9.628;2023-09-08T16:23:57;38.40;98.20
18888;DHT22;9576;47.792;9.628;2023-09-08T16:27:00;37.80;97.00
18888;DHT22;9576;47.792;9.628;2023-09-08T16:30:05;37.20;97.70
18888;DHT22;9576;47.792;9.628;2023-09-08T16:33:07;37.10;98.00
18888;DHT22;9576;47.792;9.628;2023-09-08T16:36:09;37.10;97.80
18888;DHT22;9576;47.792;9.628;2023-09-08T16:39:11;37.00;98.20
18888;DHT22;9576;47.792;9.628;2023-09-08T16:42:15;36.70;97.20
18888;DHT22;9576;47.792;9.628;2023-09-08T16:45:17;35.90;98.80
18888;DHT22;9576;47.792;9.628;2023-09-08T16:48:19;35.10;99.30
18888;DHT22;9576;47.792;9.628;2023-09-08T16:51:21;34.40;99.90
18888;DHT22;9576;47.792;9.628;2023-09-08T16:54:24;33.60;99.90
18888;DHT22;9576;47.792;9.628;2023-09-08T16:57:27;32.70;99.90
18888;DHT22;9576;47.792;9.628;2023-09-08T17:00:29;32.60;99.90
18888;DHT22;9576;47.792;9.628;2023-09-08T17:03:32;32.70;99.90
18888;DHT22;9576;47.792;9.628;2023-09-08T17:06:34;32.40;99.90
18888;DHT22;9576;47.792;9.628;2023-09-08T17:09:36;31.50;99.90
18888;DHT22;9576;47.792;9.628;2023-09-08T17:12:40;30.80;99.90
18888;DHT22;9576;47.792;9.628;2023-09-08T17:15:42;30.10;99.90
18888;DHT22;9576;47.792;9.628;2023-09-08T17:18:44;29.60;99.90
18888;DHT22;9576;47.792;9.628;2023-09-08T17:21:46;29.10;99.90
18888;DHT22;9576;47.792;9.628;2023-09-08T17:24:49;28.30;99.90
18888;DHT22;9576;47.792;9.628;2023-09-08T17:27:53;27.80;99.90
18888;DHT22;9576;47.792;9.628;2023-09-08T17:30:57;27.40;99.90
18888;DHT22;9576;47.792;9.628;2023-09-08T17:33:59;26.90;99.90
18888;DHT22;9576;47.792;9.628;2023-09-08T17:37:01;26.60;99.90
18888;DHT22;9576;47.792;9.628;2023-09-08T17:40:04;26.30;99.90
18888;DHT22;9576;47.792;9.628;2023-09-08T17:43:07;26.10;99.90
18888;DHT22;9576;47.792;9.628;2023-09-08T17:46:10;25.80;99.90
18888;DHT22;9576;47.792;9.628;2023-09-08T17:49:12;25.50;99.90
18888;DHT22;9576;47.792;9.628;2023-09-08T17:52:14;25.20;99.90
18888;DHT22;9576;47.792;9.628;2023-09-08T17:55:18;25.10;99.90
18888;DHT22;9576;47.792;9.628;2023-09-08T17:58:23;25.00;99.90
18888;DHT22;9576;47.792;9.628;2023-09-08T18:01:25;24.80;99.90
18888;DHT22;9576;47.792;9.628;2023-09-08T18:04:27;24.60;99.90
18888;DHT22;9576;47.792;9.628;2023-09-08T18:07:29;24.50;99.90
18888;DHT22;9576;47.792;9.628;2023-09-08T18:10:31;24.40;99.90
18888;DHT22;9576;47.792;9.628;2023-09-08T18:13:35;24.30;99.90
18888;DHT22;9576;47.792;9.628;2023-09-08T18:16:37;24.20;99.90
18888;DHT22;9576;47.792;9.628;2023-09-08T18:19:40;24.10;99.90
18888;DHT22;9576;47.792;9.628;2023-09-08T18:22:43;24.00;99.90
18888;DHT22;9576;47.792;9.628;2023-09-08T18:25:45;23.90;99.90
18888;DHT22;9576;47.792;9.628;2023-09-08T18:28:49;23.80;99.90
18888;DHT22;9576;47.792;9.628;2023-09-08T18:31:51;23.60;99.90
18888;DHT22;9576;47.792;9.628;2023-09-08T18:34:53;23.60;99.90
18888;DHT22;9576;47.792;9.628;2023-09-08T18:37:55;23.40;99.90
18888;DHT22;9576;47.792;9.628;2023-09-08T18:40:57;23.30;99.90
18888;DHT22;9576;47.792;9.628;2023-09-08T18:44:01;23.10;99.90
18888;DHT22;9576;47.792;9.628;2023-09-08T18:47:03;23.00;99.90
18888;DHT22;9576;47.792;9.628;2023-09-08T18:50:06;22.90;99.90
18888;DHT22;9576;47.792;9.628;2023-09-08T18:53:09;22.70;99.90
18888;DHT22;9576;47.792;9.628;2023-09-08T18:56:11;22.70;99.90
18888;DHT22;9576;47.792;9.628;2023-09-08T18:59:16;22.60;99.90
18888;DHT22;9576;47.792;9.628;2023-09-08T19:02:18;22.50;99.90
18888;DHT22;9576;47.792;9.628;2023-09-08T19:05:20;22.50;99.90
18888;DHT22;9576;47.792;9.628;2023-09-08T19:08:22;22.40;99.90
18888;DHT22;9576;47.792;9.628;2023-09-08T19:11:24;22.40;99.90
18888;DHT22;9576;47.792;9.628;2023-09-08T19:14:27;22.30;99.90
18888;DHT22;9576;47.792;9.628;2023-09-08T19:17:29;22.20;99.90
18888;DHT22;9576;47.792;9.628;2023-09-08T19:20:31;22.20;99.90
18888;DHT22;9576;47.792;9.628;2023-09-08T19:23:34;22.10;99.90
18888;DHT22;9576;47.792;9.628;2023-09-08T19:26:36;22.10;99.90
18888;DHT22;9576;47.792;9.628;2023-09-08T19:29:39;22.00;99.90
18888;DHT22;9576;47.792;9.628;2023-09-08T19:32:41;22.00;99.90
18888;DHT22;9576;47.792;9.628;2023-09-08T19:35:43;21.90;99.90